Time;durP1;ratioP1;P1;durP2;ratioP2;P2;SDS_P1;SDS_P2;PMS_P1;PMS_P2;Temp;Humidity;BMP_temperature;BMP_pressure;BME280_temperature;BME280_humidity;BME280_pressure;Samples;Min_cycle;Max_cycle;Signal;HPM_P1;HPM_P2
2022/07/27 00:01:11;;;;;;;2.05;0.95;;;14.40;99.90;;;;;;4864182;29;37176;-80
2022/07/27 00:03:37;;;;;;;2.78;0.73;;;14.30;99.90;;;;;;4865258;29;38434;-79
2022/07/27 00:06:03;;;;;;;1.77;0.93;;;14.20;99.90;;;;;;4847534;29;37561;-77
2022/07/27 00:08:29;;;;;;;5.07;1.45;;;14.20;99.90;;;;;;4868518;29;37969;-78
2022/07/27 00:10:56;;;;;;;1.98;0.80;;;14.20;99.90;;;;;;4849269;29;36946;-78
2022/07/27 00:13:22;;;;;;;4.43;0.80;;;14.20;99.90;;;;;;4850712;29;38692;-78
2022/07/27 00:15:48;;;;;;;2.05;0.90;;;14.20;99.90;;;;;;4862709;29;39148;-79
2022/07/27 00:18:15;;;;;;;2.15;0.88;;;14.30;99.90;;;;;;4864591;29;38094;-78
2022/07/27 00:20:41;;;;;;;2.88;1.10;;;14.30;99.90;;;;;;4851337;29;36287;-77
2022/07/27 00:23:08;;;;;;;3.92;0.98;;;14.20;99.90;;;;;;4865194;29;38366;-78
2022/07/27 00:25:34;;;;;;;3.50;0.98;;;14.20;99.90;;;;;;4865878;29;37080;-78
2022/07/27 00:28:04;;;;;;;0.75;0.60;;;14.20;99.90;;;;;;4866141;29;38175;-79
2022/07/27 00:30:30;;;;;;;2.50;0.88;;;14.20;99.90;;;;;;4867573;29;48628;-79
2022/07/27 00:32:56;;;;;;;2.78;0.85;;;14.20;99.90;;;;;;4863146;29;39208;-79
2022/07/27 00:35:24;;;;;;;3.60;1.08;;;14.20;99.90;;;;;;4848686;29;38951;-78
2022/07/27 00:37:50;;;;;;;3.30;0.68;;;14.20;99.90;;;;;;4851451;29;38527;-79
2022/07/27 00:40:16;;;;;;;2.67;0.82;;;14.10;99.90;;;;;;4868514;29;37536;-78
2022/07/27 00:42:42;;;;;;;4.03;0.95;;;14.10;99.90;;;;;;4880664;29;39445;-78
2022/07/27 00:45:08;;;;;;;2.00;0.80;;;14.10;99.90;;;;;;4864893;29;36930;-78
2022/07/27 00:47:35;;;;;;;2.53;1.10;;;14.20;99.90;;;;;;4879138;29;39083;-78
2022/07/27 00:50:01;;;;;;;2.20;0.82;;;14.10;99.90;;;;;;4849254;29;37708;-78
2022/07/27 00:52:29;;;;;;;2.63;1.00;;;14.10;99.90;;;;;;4851283;29;37671;-78
2022/07/27 00:54:55;;;;;;;2.55;1.00;;;14.10;99.90;;;;;;4851963;29;37650;-79
2022/07/27 00:57:22;;;;;;;4.13;0.88;;;14.10;99.90;;;;;;4863695;29;37735;-79
2022/07/27 00:59:48;;;;;;;2.05;0.93;;;14.00;99.90;;;;;;4868226;29;36991;-78
2022/07/27 01:02:15;;;;;;;2.10;1.10;;;14.00;99.90;;;;;;4847567;29;38432;-78
2022/07/27 01:04:41;;;;;;;4.85;1.70;;;14.10;99.90;;;;;;4862708;29;39018;-78
2022/07/27 01:07:07;;;;;;;0.70;0.70;;;14.10;99.90;;;;;;4849910;29;38043;-79
2022/07/27 01:12:20;;;;;;;3.03;0.75;;;14.10;99.90;;;;;;4862361;29;38472;-77
2022/07/27 01:14:47;;;;;;;2.33;0.90;;;14.10;99.90;;;;;;4859366;29;39149;-77
2022/07/27 01:17:14;;;;;;;2.63;0.80;;;14.10;99.90;;;;;;4849171;29;37356;-80
2022/07/27 01:19:40;;;;;;;1.88;0.80;;;14.20;99.90;;;;;;4847541;29;36633;-77
2022/07/27 01:22:07;;;;;;;1.83;0.77;;;14.30;99.90;;;;;;4865194;29;39953;-76
2022/07/27 01:24:34;;;;;;;6.03;0.90;;;14.30;99.90;;;;;;4859445;29;37991;-77
2022/07/27 01:27:01;;;;;;;2.58;1.02;;;14.30;99.90;;;;;;4860412;29;37981;-78
2022/07/27 01:29:28;;;;;;;2.60;0.60;;;14.40;99.90;;;;;;4849276;29;48285;-78
2022/07/27 01:31:55;;;;;;;1.80;0.80;;;14.50;99.90;;;;;;4866581;29;38752;-78
2022/07/27 01:34:21;;;;;;;1.45;0.63;;;14.50;99.90;;;;;;4848905;29;38889;-79
2022/07/27 01:36:47;;;;;;;2.40;0.80;;;14.50;99.90;;;;;;4852993;29;36668;-76
2022/07/27 01:39:15;;;;;;;2.03;0.75;;;14.60;99.90;;;;;;4845216;29;36729;-77
2022/07/27 01:41:42;;;;;;;2.60;0.60;;;14.60;99.90;;;;;;4849634;29;38766;-78
2022/07/27 01:44:08;;;;;;;1.80;0.70;;;14.70;99.90;;;;;;4848877;29;38668;-77
2022/07/27 01:46:34;;;;;;;3.08;0.80;;;14.70;99.90;;;;;;4865259;29;39095;-78
2022/07/27 01:49:01;;;;;;;2.30;0.80;;;14.80;99.90;;;;;;4843563;29;37840;-78
2022/07/27 01:51:27;;;;;;;2.17;0.75;;;14.80;99.90;;;;;;4850059;29;47412;-78
2022/07/27 01:53:53;;;;;;;7.75;1.10;;;14.80;99.90;;;;;;4848887;29;37645;-78
2022/07/27 01:56:20;;;;;;;2.45;0.65;;;14.90;99.90;;;;;;4864304;29;37828;-79
2022/07/27 01:58:46;;;;;;;2.55;0.70;;;14.90;99.90;;;;;;4849465;29;37110;-78
2022/07/27 02:01:12;;;;;;;3.22;0.80;;;14.90;99.90;;;;;;4865258;29;39959;-77
2022/07/27 02:03:38;;;;;;;2.58;0.63;;;14.90;99.90;;;;;;4846733;29;38681;-78
2022/07/27 02:06:04;;;;;;;2.97;0.85;;;14.90;99.90;;;;;;4846753;29;39833;-79
2022/07/27 02:08:31;;;;;;;1.65;0.60;;;14.90;99.90;;;;;;4846906;29;37067;-79
2022/07/27 02:13:43;;;;;;;3.45;0.85;;;14.90;99.90;;;;;;4866187;29;49036;-79
2022/07/27 02:16:09;;;;;;;3.10;1.02;;;14.80;99.90;;;;;;4850979;29;38002;-78
2022/07/27 02:18:36;;;;;;;2.40;0.68;;;14.80;99.90;;;;;;4847300;29;37089;-79
2022/07/27 02:21:03;;;;;;;1.08;0.60;;;14.70;99.90;;;;;;4845547;29;39035;-79
2022/07/27 02:23:30;;;;;;;3.08;0.70;;;14.60;99.90;;;;;;4843952;29;38093;-79
2022/07/27 02:25:56;;;;;;;2.97;0.57;;;14.60;99.90;;;;;;4865703;29;37085;-78
2022/07/27 02:28:22;;;;;;;3.55;0.80;;;14.60;99.90;;;;;;4849724;29;36995;-78
2022/07/27 02:30:48;;;;;;;1.77;0.70;;;14.60;99.90;;;;;;4864025;29;39193;-79
2022/07/27 02:33:15;;;;;;;2.38;0.80;;;14.50;99.90;;;;;;4849600;29;37199;-79
2022/07/27 02:35:42;;;;;;;2.70;0.80;;;14.50;99.90;;;;;;4863119;29;38779;-79
2022/07/27 02:38:08;;;;;;;2.90;0.90;;;14.40;99.90;;;;;;4858367;29;36945;-79
2022/07/27 02:40:34;;;;;;;3.88;0.82;;;14.30;99.90;;;;;;4860670;29;38725;-79
2022/07/27 02:43:00;;;;;;;3.83;0.70;;;14.30;99.90;;;;;;4820919;29;37569;-79
2022/07/27 02:45:27;;;;;;;2.83;0.63;;;14.20;99.90;;;;;;4849985;29;47821;-78
2022/07/27 02:47:53;;;;;;;3.33;1.33;;;14.10;99.90;;;;;;4838000;29;36072;-79
2022/07/27 02:50:19;;;;;;;3.65;0.90;;;14.00;99.90;;;;;;4844592;29;37424;-80
2022/07/27 02:52:45;;;;;;;3.13;0.82;;;14.00;99.90;;;;;;4845063;29;40289;-79
2022/07/27 02:55:11;;;;;;;2.45;0.85;;;13.90;99.90;;;;;;4866357;29;38100;-79
2022/07/27 02:57:39;;;;;;;4.97;0.80;;;13.90;99.90;;;;;;4845340;29;37214;-80
2022/07/27 03:00:10;;;;;;;2.97;0.70;;;13.90;99.90;;;;;;4840183;29;38712;-77
2022/07/27 03:02:36;;;;;;;3.13;0.80;;;13.90;99.90;;;;;;4857692;29;38312;-78
2022/07/27 03:05:04;;;;;;;2.55;0.70;;;13.90;99.90;;;;;;4844879;29;40140;-78
2022/07/27 03:07:30;;;;;;;3.22;0.73;;;13.90;99.90;;;;;;4862515;29;47688;-79
2022/07/27 03:09:56;;;;;;;4.70;0.95;;;14.00;99.90;;;;;;4846040;29;38216;-77
2022/07/27 03:12:22;;;;;;;3.03;1.00;;;13.90;99.90;;;;;;4865649;29;39078;-78
2022/07/27 03:14:48;;;;;;;4.32;0.90;;;13.90;99.90;;;;;;4865278;29;37863;-78
2022/07/27 03:17:14;;;;;;;6.07;0.98;;;14.00;99.90;;;;;;4846919;29;36084;-78
2022/07/27 03:19:40;;;;;;;3.55;1.20;;;14.10;99.90;;;;;;4850979;29;39790;-78
2022/07/27 03:22:06;;;;;;;3.60;1.05;;;14.10;99.90;;;;;;4863660;29;38238;-77
2022/07/27 03:24:32;;;;;;;1.90;1.25;;;14.20;99.90;;;;;;4864691;29;38024;-78
2022/07/27 03:26:58;;;;;;;2.22;0.75;;;14.20;99.90;;;;;;4862147;29;37524;-79
2022/07/27 03:29:24;;;;;;;1.02;0.70;;;14.20;99.90;;;;;;4848935;29;36831;-77
2022/07/27 03:31:50;;;;;;;3.15;0.80;;;14.20;99.90;;;;;;4863802;29;38564;-79
2022/07/27 03:34:16;;;;;;;2.92;0.70;;;14.20;99.90;;;;;;4847985;29;37094;-78
2022/07/27 03:36:43;;;;;;;1.52;0.70;;;14.20;99.90;;;;;;4868808;29;37377;-79
2022/07/27 03:39:09;;;;;;;2.75;0.77;;;14.20;99.90;;;;;;4844364;29;39019;-78
2022/07/27 03:41:35;;;;;;;3.40;0.88;;;14.10;99.90;;;;;;4869603;29;39784;-79
2022/07/27 03:44:04;;;;;;;2.10;0.70;;;14.20;99.90;;;;;;4840593;29;37023;-78
2022/07/27 03:46:31;;;;;;;4.57;0.65;;;14.20;99.90;;;;;;4867936;29;36964;-77
2022/07/27 03:48:57;;;;;;;3.28;0.60;;;14.20;99.90;;;;;;4849223;29;37306;-77
2022/07/27 03:51:23;;;;;;;2.10;0.73;;;14.30;99.90;;;;;;4850008;29;37279;-81
2022/07/27 03:53:50;;;;;;;1.40;0.50;;;14.20;99.90;;;;;;4865889;29;37793;-77
2022/07/27 03:56:16;;;;;;;1.90;0.80;;;14.20;99.90;;;;;;4866822;29;37587;-78
2022/07/27 03:58:42;;;;;;;1.58;0.55;;;14.30;99.90;;;;;;4861219;29;41567;-78
2022/07/27 04:01:08;;;;;;;2.70;0.60;;;14.30;99.90;;;;;;4843586;29;37291;-78
2022/07/27 04:03:34;;;;;;;2.08;0.57;;;14.30;99.90;;;;;;4848510;29;36795;-78
2022/07/27 04:06:00;;;;;;;2.00;0.75;;;14.30;99.90;;;;;;4875072;29;37259;-78
2022/07/27 04:08:26;;;;;;;2.17;0.70;;;14.30;99.90;;;;;;4887889;29;39754;-78
2022/07/27 04:10:52;;;;;;;1.95;0.60;;;14.40;99.90;;;;;;4871671;29;39294;-78
2022/07/27 04:13:20;;;;;;;2.33;0.73;;;14.40;99.90;;;;;;4854476;29;36922;-78
2022/07/27 04:15:47;;;;;;;2.47;0.68;;;14.40;99.90;;;;;;4869195;29;37101;-78
2022/07/27 04:18:14;;;;;;;1.73;0.60;;;14.50;99.90;;;;;;4868136;29;39211;-77
2022/07/27 04:20:40;;;;;;;1.85;0.70;;;14.50;99.90;;;;;;4866913;29;37614;-78
2022/07/27 04:23:06;;;;;;;2.92;0.90;;;14.60;99.90;;;;;;4848729;29;38624;-78
2022/07/27 04:25:32;;;;;;;0.95;0.50;;;14.60;99.90;;;;;;4868409;29;37087;-79
2022/07/27 04:27:58;;;;;;;4.75;0.88;;;14.60;99.90;;;;;;4849918;29;38264;-79
2022/07/27 04:30:24;;;;;;;1.20;0.60;;;14.70;99.90;;;;;;4862106;29;39918;-78
2022/07/27 04:32:51;;;;;;;1.00;0.50;;;14.70;99.90;;;;;;4859614;29;38690;-77
2022/07/27 04:35:17;;;;;;;1.90;0.68;;;14.80;99.90;;;;;;4861990;29;38364;-78
2022/07/27 04:37:43;;;;;;;2.33;0.50;;;14.90;99.90;;;;;;4851314;29;38582;-78
2022/07/27 04:40:10;;;;;;;2.80;0.63;;;14.90;99.90;;;;;;4846304;29;38750;-77
2022/07/27 04:45:55;;;;;;;1.23;0.40;;;15.00;99.90;;;;;;4866698;29;49636;-78
2022/07/27 04:48:22;;;;;;;3.05;0.60;;;15.10;99.90;;;;;;4864917;29;38180;-77
2022/07/27 04:50:48;;;;;;;1.05;0.60;;;15.10;99.90;;;;;;4866733;29;39875;-77
2022/07/27 04:53:15;;;;;;;1.00;0.50;;;15.20;99.90;;;;;;4848321;29;39364;-77
2022/07/27 04:55:43;;;;;;;1.67;0.52;;;15.20;99.90;;;;;;4851374;29;36377;-78
2022/07/27 04:58:10;;;;;;;3.63;0.80;;;15.20;99.90;;;;;;4865087;29;39930;-78
2022/07/27 05:00:36;;;;;;;1.52;0.50;;;15.20;99.90;;;;;;4865358;29;38933;-78
2022/07/27 05:03:03;;;;;;;2.65;0.47;;;15.30;99.90;;;;;;4850195;29;39077;-77
2022/07/27 05:05:29;;;;;;;1.90;0.55;;;15.30;99.90;;;;;;4849803;29;36277;-78
2022/07/27 05:07:55;;;;;;;3.13;0.60;;;15.30;99.90;;;;;;4849239;29;39048;-78
2022/07/27 05:10:21;;;;;;;1.15;0.55;;;15.40;99.90;;;;;;4848306;29;39241;-78
2022/07/27 05:12:48;;;;;;;1.65;0.80;;;15.40;99.90;;;;;;4859882;29;39170;-78
2022/07/27 05:15:15;;;;;;;2.85;0.68;;;15.40;99.90;;;;;;4864605;29;37072;-78
2022/07/27 05:17:41;;;;;;;3.35;0.57;;;15.40;99.90;;;;;;4864745;29;39975;-78
2022/07/27 05:20:08;;;;;;;3.33;0.70;;;15.40;99.90;;;;;;4860823;29;38002;-78
2022/07/27 05:22:34;;;;;;;1.60;0.55;;;15.40;99.90;;;;;;4847329;29;37534;-79
2022/07/27 05:25:00;;;;;;;2.83;0.77;;;15.40;99.90;;;;;;4867185;29;37392;-78
2022/07/27 05:27:27;;;;;;;2.20;0.73;;;15.40;99.90;;;;;;4865907;29;38899;-78
2022/07/27 05:29:53;;;;;;;2.90;0.93;;;15.50;99.90;;;;;;4863956;29;39584;-78
2022/07/27 05:32:19;;;;;;;2.13;0.70;;;15.50;99.90;;;;;;4846677;29;38540;-78
2022/07/27 05:34:45;;;;;;;2.05;0.65;;;15.50;99.90;;;;;;4850475;29;36165;-78
2022/07/27 05:37:11;;;;;;;4.43;1.05;;;15.60;99.90;;;;;;4850374;29;37788;-77
2022/07/27 05:39:41;;;;;;;3.40;0.90;;;15.60;99.90;;;;;;4863919;29;38858;-78
2022/07/27 05:42:08;;;;;;;1.45;0.57;;;15.60;99.90;;;;;;4865425;29;36973;-78
2022/07/27 05:44:34;;;;;;;1.33;0.63;;;15.60;99.90;;;;;;4868672;29;37052;-77
2022/07/27 05:47:01;;;;;;;2.08;0.60;;;15.70;99.90;;;;;;4863568;29;39568;-78
2022/07/27 05:49:27;;;;;;;5.15;0.90;;;15.80;99.90;;;;;;4849488;29;46570;-79
2022/07/27 05:51:53;;;;;;;3.88;0.95;;;15.80;99.90;;;;;;4865794;29;39181;-77
2022/07/27 05:54:19;;;;;;;3.20;0.82;;;15.80;99.90;;;;;;4865864;29;36615;-78
2022/07/27 05:56:46;;;;;;;4.00;0.88;;;15.90;99.90;;;;;;4850025;29;39912;-75
2022/07/27 05:59:12;;;;;;;3.83;0.70;;;15.90;99.90;;;;;;4864101;29;37712;-77
2022/07/27 06:01:38;;;;;;;1.60;0.60;;;16.00;99.90;;;;;;4861306;29;38070;-77
2022/07/27 06:04:04;;;;;;;2.22;0.82;;;16.10;99.90;;;;;;4851398;29;34822;-77
2022/07/27 06:09:15;;;;;;;4.10;0.68;;;16.20;99.90;;;;;;4862004;29;40143;-76
2022/07/27 06:11:42;;;;;;;3.88;0.80;;;16.30;99.90;;;;;;4846846;29;37812;-77
2022/07/27 06:14:08;;;;;;;4.22;0.90;;;16.30;99.90;;;;;;4843775;29;36527;-76
2022/07/27 06:16:35;;;;;;;2.22;0.95;;;16.40;99.90;;;;;;4847971;29;38559;-77
2022/07/27 06:19:01;;;;;;;3.00;1.00;;;16.40;99.90;;;;;;4848538;29;40054;-77
2022/07/27 06:21:27;;;;;;;2.33;0.80;;;16.50;99.90;;;;;;4853892;29;47300;-76
2022/07/27 06:23:54;;;;;;;3.40;0.93;;;16.50;99.90;;;;;;4847758;29;36469;-77
2022/07/27 06:26:20;;;;;;;0.88;0.60;;;16.60;99.90;;;;;;4844478;29;38390;-77
2022/07/27 06:28:46;;;;;;;2.30;0.90;;;16.60;99.90;;;;;;4862518;29;37673;-77
2022/07/27 06:31:13;;;;;;;2.90;0.73;;;16.60;99.90;;;;;;4843315;29;37853;-76
2022/07/27 06:33:40;;;;;;;4.30;1.10;;;16.60;99.90;;;;;;4832600;29;36513;-76
2022/07/27 06:36:09;;;;;;;2.30;0.82;;;16.50;99.90;;;;;;4850343;29;38907;-77
2022/07/27 06:38:36;;;;;;;1.83;0.52;;;16.30;99.90;;;;;;4834134;29;37728;-77
2022/07/27 06:41:03;;;;;;;4.70;0.95;;;16.30;99.90;;;;;;4846982;29;38304;-78
2022/07/27 06:43:31;;;;;;;3.17;0.75;;;16.20;99.90;;;;;;4847126;29;37212;-78
2022/07/27 06:45:58;;;;;;;5.78;1.13;;;16.20;99.90;;;;;;4852766;29;39285;-78
2022/07/27 06:48:24;;;;;;;5.45;1.00;;;16.10;99.90;;;;;;4847747;29;39477;-78
2022/07/27 06:50:51;;;;;;;1.30;0.70;;;16.10;99.90;;;;;;4850091;29;38237;-77
2022/07/27 06:53:18;;;;;;;4.50;0.98;;;16.00;99.90;;;;;;4844783;29;38160;-76
2022/07/27 06:55:45;;;;;;;4.75;0.80;;;15.80;99.90;;;;;;4839110;29;38546;-75
2022/07/27 06:58:11;;;;;;;2.22;0.77;;;15.70;99.90;;;;;;4846127;29;39460;-76
2022/07/27 07:00:39;;;;;;;3.08;1.02;;;15.60;99.90;;;;;;4842964;29;38424;-79
2022/07/27 07:03:05;;;;;;;3.08;0.98;;;15.50;99.90;;;;;;4849146;29;35299;-77
2022/07/27 07:05:33;;;;;;;2.30;0.75;;;15.40;99.90;;;;;;4857909;29;38563;-81
2022/07/27 07:08:00;;;;;;;4.05;0.80;;;15.30;99.90;;;;;;4866670;29;40288;-80
2022/07/27 07:10:27;;;;;;;2.47;1.02;;;15.30;99.90;;;;;;4836125;29;37098;-80
2022/07/27 07:12:56;;;;;;;1.42;0.70;;;15.40;99.90;;;;;;4840587;29;37128;-78
2022/07/27 07:15:25;;;;;;;2.40;0.77;;;15.30;99.90;;;;;;4832917;29;37810;-78
2022/07/27 07:17:52;;;;;;;2.08;0.90;;;15.30;99.90;;;;;;4845238;29;39667;-78
2022/07/27 07:20:18;;;;;;;3.60;0.80;;;15.40;99.90;;;;;;4844800;29;37299;-78
2022/07/27 07:22:44;;;;;;;3.00;0.90;;;15.50;99.90;;;;;;4832331;29;38289;-78
2022/07/27 07:25:10;;;;;;;4.55;0.80;;;15.60;99.90;;;;;;4829423;29;37847;-77
2022/07/27 07:27:36;;;;;;;2.38;0.73;;;15.70;99.90;;;;;;4827457;29;39252;-78
2022/07/27 07:30:04;;;;;;;3.67;0.88;;;15.80;99.90;;;;;;4844032;29;41278;-77
2022/07/27 07:32:30;;;;;;;3.50;0.90;;;15.80;99.90;;;;;;4848477;29;47229;-77
2022/07/27 07:34:56;;;;;;;2.65;0.90;;;16.00;99.90;;;;;;4849252;29;37567;-77
2022/07/27 07:37:23;;;;;;;1.85;0.60;;;16.20;99.90;;;;;;4866397;29;20895;-80
2022/07/27 07:39:49;;;;;;;2.35;0.73;;;16.20;99.90;;;;;;4837217;29;38419;-76
2022/07/27 07:42:15;;;;;;;3.30;0.90;;;16.30;99.90;;;;;;4860417;29;37690;-76
2022/07/27 07:44:42;;;;;;;3.25;0.90;;;16.60;99.90;;;;;;4867022;29;39813;-77
2022/07/27 07:47:08;;;;;;;4.53;0.93;;;16.80;99.90;;;;;;4848986;29;39622;-78
2022/07/27 07:49:38;;;;;;;1.27;0.57;;;17.00;99.90;;;;;;4866400;29;38248;-77
2022/07/27 07:52:04;;;;;;;3.13;0.60;;;17.10;99.90;;;;;;4847043;29;35146;-76
2022/07/27 07:54:30;;;;;;;3.60;0.90;;;17.30;99.90;;;;;;4863156;29;39006;-75
2022/07/27 07:56:56;;;;;;;2.63;0.60;;;17.50;99.90;;;;;;4867260;29;39081;-75
2022/07/27 07:59:22;;;;;;;2.80;0.60;;;17.70;99.90;;;;;;4863866;29;38529;-76
2022/07/27 08:01:49;;;;;;;2.53;0.80;;;17.90;99.90;;;;;;4849086;29;35951;-76
2022/07/27 08:04:15;;;;;;;3.03;0.80;;;18.10;99.90;;;;;;4850805;29;37785;-76
2022/07/27 08:06:41;;;;;;;2.70;1.05;;;18.30;99.90;;;;;;4867650;29;38884;-77
2022/07/27 08:09:07;;;;;;;4.80;0.80;;;18.40;99.90;;;;;;4860235;29;36926;-77
2022/07/27 08:11:33;;;;;;;4.25;1.02;;;18.40;99.90;;;;;;4848916;29;36887;-77
2022/07/27 08:14:00;;;;;;;3.92;0.75;;;18.30;99.90;;;;;;4864798;29;39754;-75
2022/07/27 08:16:26;;;;;;;3.17;0.80;;;18.50;99.90;;;;;;4847116;29;38402;-76
2022/07/27 08:18:52;;;;;;;3.90;1.00;;;18.70;99.90;;;;;;4867458;29;38532;-75
2022/07/27 08:21:18;;;;;;;1.98;0.85;;;18.60;99.90;;;;;;4847757;29;36488;-76
2022/07/27 08:23:44;;;;;;;5.13;0.80;;;18.90;99.90;;;;;;4865428;29;38624;-76
2022/07/27 08:26:10;;;;;;;1.85;1.02;;;19.00;99.90;;;;;;4853461;29;38132;-75
2022/07/27 08:28:37;;;;;;;3.08;0.90;;;18.80;99.90;;;;;;4868316;29;35925;-74
2022/07/27 08:31:04;;;;;;;2.25;0.63;;;18.80;99.90;;;;;;4856033;29;37041;-75
2022/07/27 08:33:30;;;;;;;4.22;0.93;;;19.30;99.90;;;;;;4856340;29;37803;-74
2022/07/27 08:35:56;;;;;;;2.90;0.90;;;19.60;99.90;;;;;;4849728;29;37763;-74
2022/07/27 08:38:22;;;;;;;5.43;0.80;;;19.80;99.90;;;;;;4847298;29;37595;-73
2022/07/27 08:40:49;;;;;;;1.58;0.57;;;20.00;99.90;;;;;;4866933;29;37954;-75
2022/07/27 08:43:16;;;;;;;4.90;0.80;;;20.30;99.90;;;;;;4847419;29;38986;-73
2022/07/27 08:45:44;;;;;;;3.17;0.70;;;20.60;99.90;;;;;;4849888;29;38022;-76
2022/07/27 08:48:12;;;;;;;2.17;0.50;;;20.90;99.90;;;;;;4866541;29;38548;-75
2022/07/27 08:50:40;;;;;;;2.78;0.80;;;21.10;99.90;;;;;;4865678;29;36178;-76
2022/07/27 08:53:08;;;;;;;5.75;0.95;;;21.50;99.90;;;;;;4867491;29;38841;-77
2022/07/27 08:55:41;;;;;;;2.42;0.55;;;21.80;99.90;;;;;;4854768;29;38813;-76
2022/07/27 08:58:09;;;;;;;3.13;0.70;;;21.80;99.90;;;;;;4851487;29;38702;-77
2022/07/27 09:00:39;;;;;;;3.60;1.08;;;22.00;99.90;;;;;;4871061;29;36166;-77
2022/07/27 09:03:05;;;;;;;2.30;0.70;;;22.20;99.90;;;;;;4869763;29;38573;-76
2022/07/27 09:05:31;;;;;;;6.47;0.73;;;22.20;99.90;;;;;;4848805;29;37562;-77
2022/07/27 09:08:20;;;;;;;2.42;0.50;;;22.30;99.90;;;;;;4857330;29;38064;-76
2022/07/27 09:10:46;;;;;;;3.83;0.85;;;22.50;99.90;;;;;;4868396;29;48492;-77
2022/07/27 09:13:29;;;;;;;3.25;1.00;;;22.10;99.90;;;;;;4874101;29;39647;-77
2022/07/27 09:16:04;;;;;;;2.63;0.60;;;22.10;99.90;;;;;;4851179;29;37672;-78
2022/07/27 09:18:37;;;;;;;4.90;1.45;;;22.50;99.90;;;;;;4853227;29;47363;-76
2022/07/27 09:21:08;;;;;;;3.92;0.70;;;22.70;99.90;;;;;;4873327;29;37217;-76
2022/07/27 09:23:34;;;;;;;0.47;0.20;;;22.60;99.90;;;;;;4869124;29;39753;-77
2022/07/27 09:26:11;;;;;;;2.65;0.52;;;22.30;99.90;;;;;;4852145;29;39182;-76
2022/07/27 09:28:37;;;;;;;2.85;0.70;;;21.90;99.90;;;;;;4874659;29;48745;-77
2022/07/27 09:31:13;;;;;;;1.80;0.50;;;22.00;99.90;;;;;;4875102;29;36931;-77
2022/07/27 09:34:00;;;;;;;1.63;0.40;;;22.10;99.90;;;;;;4874141;29;39732;-76
2022/07/27 09:36:28;;;;;;;2.45;0.47;;;21.70;99.90;;;;;;4855891;29;37721;-76
2022/07/27 09:38:55;;;;;;;2.13;0.65;;;21.80;99.90;;;;;;4873755;29;39091;-76
2022/07/27 09:41:22;;;;;;;1.33;0.50;;;21.70;99.90;;;;;;4875010;29;37111;-77
2022/07/27 09:43:53;;;;;;;2.53;0.70;;;21.70;99.90;;;;;;4858648;29;37680;-76
2022/07/27 09:46:33;;;;;;;1.85;0.60;;;21.90;99.90;;;;;;4859861;29;38633;-76
2022/07/27 09:49:01;;;;;;;4.30;0.90;;;21.80;99.90;;;;;;4875759;29;39255;-76
2022/07/27 09:51:29;;;;;;;2.00;0.70;;;21.50;99.90;;;;;;4873970;29;48871;-76
2022/07/27 09:53:58;;;;;;;2.55;0.80;;;21.20;99.90;;;;;;4857526;29;38801;-77
2022/07/27 09:56:27;;;;;;;1.50;0.57;;;20.90;99.90;;;;;;4855736;29;37559;-76
2022/07/27 09:58:56;;;;;;;2.45;0.80;;;20.90;99.90;;;;;;4856461;29;37366;-77
2022/07/27 10:01:31;;;;;;;2.00;0.52;;;20.80;99.90;;;;;;4872145;29;37481;-76
2022/07/27 10:04:00;;;;;;;2.58;0.73;;;20.70;99.90;;;;;;4874445;29;38948;-77
2022/07/27 10:06:28;;;;;;;4.15;0.57;;;20.50;99.90;;;;;;4863878;29;46101;-76
2022/07/27 10:08:56;;;;;;;3.53;0.73;;;20.60;99.90;;;;;;4894111;29;39488;-75
2022/07/27 10:11:23;;;;;;;3.28;1.27;;;21.20;99.90;;;;;;4893624;29;37392;-77
2022/07/27 10:13:51;;;;;;;2.33;0.80;;;22.00;99.90;;;;;;4876437;29;37945;-77
2022/07/27 10:16:21;;;;;;;3.33;1.05;;;22.60;99.90;;;;;;4889330;29;39170;-78
2022/07/27 10:18:59;;;;;;;1.58;0.75;;;22.80;99.90;;;;;;4873879;29;37985;-76
2022/07/27 10:21:26;;;;;;;4.32;0.65;;;23.10;99.90;;;;;;4863858;29;37376;-76
2022/07/27 10:24:01;;;;;;;3.25;0.60;;;22.70;99.90;;;;;;4854233;29;37525;-76
2022/07/27 10:26:39;;;;;;;4.68;0.90;;;22.20;99.90;;;;;;4854301;29;47102;-76
2022/07/27 10:29:19;;;;;;;3.70;0.95;;;21.60;99.90;;;;;;4847485;29;39071;-77
2022/07/27 10:31:54;;;;;;;0.57;0.30;;;21.40;99.90;;;;;;4848076;29;47230;-76
2022/07/27 10:34:37;;;;;;;3.00;0.77;;;21.10;99.90;;;;;;4870228;29;39694;-76
2022/07/27 10:37:12;;;;;;;2.70;0.90;;;21.00;99.90;;;;;;4851804;29;38669;-78
2022/07/27 10:42:46;;;;;;;4.13;0.95;;;20.90;99.90;;;;;;4868162;29;50603;-78
2022/07/27 10:45:15;;;;;;;2.55;0.60;;;21.00;99.90;;;;;;4850451;29;37737;-79
2022/07/27 10:47:47;;;;;;;2.00;0.50;;;21.20;99.90;;;;;;4856462;29;37805;-79
2022/07/27 10:50:16;;;;;;;2.65;0.55;;;21.80;99.90;;;;;;4866107;29;38582;-80
2022/07/27 10:52:53;;;;;;;2.70;0.95;;;22.40;99.90;;;;;;4864974;29;38075;-76
2022/07/27 10:55:31;;;;;;;1.48;0.70;;;22.50;99.90;;;;;;4853546;29;37549;-76
2022/07/27 10:58:03;;;;;;;3.08;0.70;;;22.20;99.90;;;;;;4854596;29;37720;-76
2022/07/27 11:00:47;;;;;;;2.88;0.82;;;21.90;99.90;;;;;;4856996;29;47146;-76
2022/07/27 11:03:24;;;;;;;2.40;0.60;;;21.30;99.90;;;;;;4870162;29;37195;-76
2022/07/27 11:06:09;;;;;;;3.78;0.70;;;20.80;99.90;;;;;;4874131;29;38988;-76
2022/07/27 11:08:43;;;;;;;1.92;0.98;;;20.50;99.90;;;;;;4856867;29;48671;-76
2022/07/27 11:11:14;;;;;;;1.27;0.60;;;20.30;99.90;;;;;;4866121;29;38696;-77
2022/07/27 11:13:40;;;;;;;2.33;0.68;;;20.20;99.90;;;;;;4847579;29;35775;-76
2022/07/27 11:16:08;;;;;;;3.00;0.70;;;20.10;99.90;;;;;;4866642;29;38930;-76
2022/07/27 11:18:36;;;;;;;2.70;0.70;;;20.00;99.90;;;;;;4871610;29;38864;-76
2022/07/27 11:21:18;;;;;;;3.17;0.70;;;19.90;99.90;;;;;;4854776;29;38508;-75
2022/07/27 11:23:46;;;;;;;4.60;1.03;;;20.00;99.90;;;;;;4843660;29;36091;-74
2022/07/27 11:26:13;;;;;;;2.78;0.70;;;20.20;99.90;;;;;;4855385;29;39653;-76
2022/07/27 11:28:40;;;;;;;1.23;0.60;;;20.50;99.90;;;;;;4852057;29;37928;-75
2022/07/27 11:31:08;;;;;;;2.55;0.40;;;20.80;99.90;;;;;;4862273;29;37443;-76
2022/07/27 11:33:35;;;;;;;2.75;0.70;;;20.90;99.90;;;;;;4855159;29;36159;-74
2022/07/27 11:36:05;;;;;;;1.95;0.60;;;21.00;99.90;;;;;;4850182;29;39112;-77
2022/07/27 11:38:47;;;;;;;1.27;0.50;;;21.30;99.90;;;;;;4853187;29;47062;-77
2022/07/27 11:41:30;;;;;;;3.10;0.75;;;21.70;99.90;;;;;;4870188;29;39048;-78
2022/07/27 11:44:06;;;;;;;1.60;0.60;;;21.80;99.90;;;;;;4862676;29;36161;-77
2022/07/27 11:46:41;;;;;;;2.17;0.68;;;21.80;99.90;;;;;;4867344;29;48543;-78
2022/07/27 11:49:13;;;;;;;1.63;0.70;;;21.80;99.90;;;;;;4846523;29;38068;-76
2022/07/27 11:51:43;;;;;;;;;;;21.90;99.90;;;;;;4848451;29;37705;-75
2022/07/27 11:54:11;;;;;;;3.30;0.73;;;21.90;99.90;;;;;;4837910;29;38042;-77
2022/07/27 11:56:42;;;;;;;4.03;0.60;;;21.60;99.90;;;;;;4848670;29;38555;-78
2022/07/27 11:59:11;;;;;;;2.45;0.70;;;21.60;99.90;;;;;;4867626;29;38896;-79
2022/07/27 12:01:38;;;;;;;4.20;0.82;;;21.50;99.90;;;;;;4853298;29;38494;-78
2022/07/27 12:04:20;;;;;;;1.40;0.80;;;21.50;99.90;;;;;;4852129;29;36521;-76
2022/07/27 12:07:20;;;;;;;2.08;0.57;;;21.30;99.90;;;;;;4854650;29;38003;-75
2022/07/27 12:09:53;;;;;;;1.75;0.60;;;21.40;99.90;;;;;;4856797;29;47126;-75
2022/07/27 12:12:24;;;;;;;2.13;0.70;;;21.40;99.90;;;;;;4851859;29;37446;-76
2022/07/27 12:15:01;;;;;;;2.15;0.50;;;21.40;99.90;;;;;;4866977;29;38037;-76
2022/07/27 12:17:39;;;;;;;1.15;0.32;;;21.50;99.90;;;;;;4857499;29;38777;-79
2022/07/27 12:20:11;;;;;;;1.63;0.63;;;21.60;99.90;;;;;;4850829;29;36787;-79
2022/07/27 12:22:42;;;;;;;0.85;0.40;;;21.70;99.90;;;;;;4844157;29;39220;-79
2022/07/27 12:25:22;;;;;;;2.40;0.70;;;21.80;99.90;;;;;;4852327;29;36295;-75
2022/07/27 12:28:22;;;;;;;4.30;0.47;;;21.80;99.90;;;;;;4867414;29;38230;-76
2022/07/27 12:30:51;;;;;;;4.07;0.55;;;21.80;99.90;;;;;;4852381;29;47326;-75
2022/07/27 12:33:36;;;;;;;3.95;0.77;;;21.70;99.90;;;;;;4842775;29;37192;-74
2022/07/27 12:36:05;;;;;;;1.85;0.52;;;21.60;99.90;;;;;;4848492;29;36072;-76
2022/07/27 12:38:43;;;;;;;3.67;0.63;;;21.60;99.90;;;;;;4850617;29;36320;-79
2022/07/27 12:41:10;;;;;;;1.77;0.52;;;21.80;99.90;;;;;;4845866;29;37716;-77
2022/07/27 12:43:36;;;;;;;3.65;0.77;;;22.60;99.90;;;;;;4859046;29;38169;-80
2022/07/27 12:46:13;;;;;;;2.17;0.45;;;23.30;99.90;;;;;;4850872;29;38824;-78
2022/07/27 12:48:41;;;;;;;0.93;0.40;;;23.80;99.90;;;;;;4868565;29;39521;-77
2022/07/27 12:51:08;;;;;;;2.72;0.52;;;24.30;99.90;;;;;;4851902;29;37964;-78
2022/07/27 12:53:36;;;;;;;2.67;0.50;;;24.50;99.90;;;;;;4850321;29;37594;-77
2022/07/27 12:56:06;;;;;;;2.58;0.70;;;24.30;99.90;;;;;;4852456;29;36409;-76
2022/07/27 12:58:33;;;;;;;0.93;0.50;;;24.10;99.90;;;;;;4870847;29;40352;-76
2022/07/27 13:00:59;;;;;;;1.95;0.73;;;24.40;99.90;;;;;;4848712;29;38664;-76
2022/07/27 13:03:25;;;;;;;1.00;0.50;;;24.00;99.90;;;;;;4852158;29;37310;-76
2022/07/27 13:05:52;;;;;;;3.05;0.60;;;23.50;99.90;;;;;;4853625;29;36728;-76
2022/07/27 13:08:18;;;;;;;2.15;0.40;;;23.40;99.90;;;;;;4865084;29;38443;-77